sensor_id;sensor_type;location;lat;lon;timestamp;temperature;humidity
44729;DHT22;30457;53.590;9.922;2023-05-20T00:04:10;16.90;35.00
44729;DHT22;30457;53.590;9.922;2023-05-20T00:08:36;16.80;35.00
44729;DHT22;30457;53.590;9.922;2023-05-20T00:13:01;16.80;35.20
44729;DHT22;30457;53.590;9.922;2023-05-20T00:17:27;16.70;35.20
44729;DHT22;30457;53.590;9.922;2023-05-20T00:21:53;16.60;35.40
44729;DHT22;30457;53.590;9.922;2023-05-20T00:26:18;16.60;35.40
44729;DHT22;30457;53.590;9.922;2023-05-20T00:30:51;16.50;35.30
44729;DHT22;30457;53.590;9.922;2023-05-20T00:35:16;16.50;35.50
44729;DHT22;30457;53.590;9.922;2023-05-20T00:39:42;16.40;35.60
44729;DHT22;30457;53.590;9.922;2023-05-20T00:44:07;16.30;35.60
44729;DHT22;30457;53.590;9.922;2023-05-20T00:48:42;16.30;35.80
44729;DHT22;30457;53.590;9.922;2023-05-20T00:53:12;16.30;36.10
44729;DHT22;30457;53.590;9.922;2023-05-20T00:57:38;16.20;36.00
44729;DHT22;30457;53.590;9.922;2023-05-20T01:02:04;16.20;36.00
44729;DHT22;30457;53.590;9.922;2023-05-20T01:06:30;16.10;36.20
44729;DHT22;30457;53.590;9.922;2023-05-20T01:11:25;16.10;36.40
44729;DHT22;30457;53.590;9.922;2023-05-20T01:15:54;16.00;36.70
44729;DHT22;30457;53.590;9.922;2023-05-20T01:20:21;16.00;36.50
44729;DHT22;30457;53.590;9.922;2023-05-20T01:24:46;16.00;36.80
44729;DHT22;30457;53.590;9.922;2023-05-20T01:29:13;16.00;37.00
44729;DHT22;30457;53.590;9.922;2023-05-20T01:33:43;15.90;37.10
44729;DHT22;30457;53.590;9.922;2023-05-20T01:38:09;15.90;37.20
44729;DHT22;30457;53.590;9.922;2023-05-20T01:42:36;15.90;37.50
44729;DHT22;30457;53.590;9.922;2023-05-20T01:47:03;15.80;37.80
44729;DHT22;30457;53.590;9.922;2023-05-20T01:51:28;15.80;37.90
44729;DHT22;30457;53.590;9.922;2023-05-20T01:55:55;15.70;38.20
44729;DHT22;30457;53.590;9.922;2023-05-20T02:00:21;15.70;38.70
44729;DHT22;30457;53.590;9.922;2023-05-20T02:04:49;15.70;39.20
44729;DHT22;30457;53.590;9.922;2023-05-20T02:09:15;15.60;39.20
44729;DHT22;30457;53.590;9.922;2023-05-20T02:13:43;15.60;39.60
44729;DHT22;30457;53.590;9.922;2023-05-20T02:18:09;15.50;39.90
44729;DHT22;30457;53.590;9.922;2023-05-20T02:22:36;15.50;40.20
44729;DHT22;30457;53.590;9.922;2023-05-20T02:27:02;15.50;40.40
44729;DHT22;30457;53.590;9.922;2023-05-20T02:31:29;15.40;40.70
44729;DHT22;30457;53.590;9.922;2023-05-20T02:35:54;15.40;41.30
44729;DHT22;30457;53.590;9.922;2023-05-20T02:40:20;15.40;41.40
44729;DHT22;30457;53.590;9.922;2023-05-20T02:44:45;15.30;41.50
44729;DHT22;30457;53.590;9.922;2023-05-20T02:49:11;15.30;41.70
44729;DHT22;30457;53.590;9.922;2023-05-20T02:53:37;15.20;41.80
44729;DHT22;30457;53.590;9.922;2023-05-20T02:58:02;15.20;42.00
44729;DHT22;30457;53.590;9.922;2023-05-20T03:02:31;15.20;42.10
44729;DHT22;30457;53.590;9.922;2023-05-20T03:06:56;15.10;42.30
44729;DHT22;30457;53.590;9.922;2023-05-20T03:11:22;15.10;43.00
44729;DHT22;30457;53.590;9.922;2023-05-20T03:15:47;15.10;42.50
44729;DHT22;30457;53.590;9.922;2023-05-20T03:20:13;15.10;42.90
44729;DHT22;30457;53.590;9.922;2023-05-20T03:24:42;15.00;42.80
44729;DHT22;30457;53.590;9.922;2023-05-20T03:29:11;15.00;43.20
44729;DHT22;30457;53.590;9.922;2023-05-20T03:33:37;15.00;43.30
44729;DHT22;30457;53.590;9.922;2023-05-20T03:38:03;14.90;43.50
44729;DHT22;30457;53.590;9.922;2023-05-20T03:42:29;14.90;43.80
44729;DHT22;30457;53.590;9.922;2023-05-20T03:46:54;14.90;43.80
44729;DHT22;30457;53.590;9.922;2023-05-20T03:51:20;14.90;44.20
44729;DHT22;30457;53.590;9.922;2023-05-20T03:55:47;14.80;44.30
44729;DHT22;30457;53.590;9.922;2023-05-20T04:00:13;14.90;44.70
44729;DHT22;30457;53.590;9.922;2023-05-20T04:04:42;14.90;44.80
44729;DHT22;30457;53.590;9.922;2023-05-20T04:09:08;14.90;44.90
44729;DHT22;30457;53.590;9.922;2023-05-20T04:13:33;14.90;45.40
44729;DHT22;30457;53.590;9.922;2023-05-20T04:17:59;14.90;45.40
44729;DHT22;30457;53.590;9.922;2023-05-20T04:22:26;14.90;45.60
44729;DHT22;30457;53.590;9.922;2023-05-20T04:26:52;15.00;46.00
44729;DHT22;30457;53.590;9.922;2023-05-20T04:31:17;15.00;46.00
44729;DHT22;30457;53.590;9.922;2023-05-20T04:35:45;15.10;46.10
44729;DHT22;30457;53.590;9.922;2023-05-20T04:40:13;15.10;46.20
44729;DHT22;30457;53.590;9.922;2023-05-20T04:44:40;15.10;46.40
44729;DHT22;30457;53.590;9.922;2023-05-20T04:49:05;15.20;46.80
44729;DHT22;30457;53.590;9.922;2023-05-20T04:53:33;15.30;46.70
44729;DHT22;30457;53.590;9.922;2023-05-20T04:58:00;15.30;46.90
44729;DHT22;30457;53.590;9.922;2023-05-20T05:02:27;15.40;46.90
44729;DHT22;30457;53.590;9.922;2023-05-20T05:06:53;15.50;47.10
44729;DHT22;30457;53.590;9.922;2023-05-20T05:11:18;15.60;47.10
44729;DHT22;30457;53.590;9.922;2023-05-20T05:15:45;15.70;47.10
44729;DHT22;30457;53.590;9.922;2023-05-20T05:20:11;15.80;47.20
44729;DHT22;30457;53.590;9.922;2023-05-20T05:24:37;15.90;47.20
44729;DHT22;30457;53.590;9.922;2023-05-20T05:29:05;16.00;47.10
44729;DHT22;30457;53.590;9.922;2023-05-20T05:33:31;16.10;47.10
44729;DHT22;30457;53.590;9.922;2023-05-20T05:37:56;16.20;47.30
44729;DHT22;30457;53.590;9.922;2023-05-20T05:42:22;16.30;47.30
44729;DHT22;30457;53.590;9.922;2023-05-20T05:46:49;16.50;47.20
44729;DHT22;30457;53.590;9.922;2023-05-20T05:51:16;16.60;47.00
44729;DHT22;30457;53.590;9.922;2023-05-20T05:55:42;16.70;47.10
44729;DHT22;30457;53.590;9.922;2023-05-20T06:00:08;16.90;47.00
44729;DHT22;30457;53.590;9.922;2023-05-20T06:04:43;17.10;47.10
44729;DHT22;30457;53.590;9.922;2023-05-20T06:09:10;17.20;46.00
44729;DHT22;30457;53.590;9.922;2023-05-20T06:13:36;17.40;46.40
44729;DHT22;30457;53.590;9.922;2023-05-20T06:18:02;17.60;46.50
44729;DHT22;30457;53.590;9.922;2023-05-20T06:22:29;17.70;46.20
44729;DHT22;30457;53.590;9.922;2023-05-20T06:26:54;17.90;46.00
44729;DHT22;30457;53.590;9.922;2023-05-20T06:31:20;18.10;46.00
44729;DHT22;30457;53.590;9.922;2023-05-20T06:35:46;18.20;45.70
44729;DHT22;30457;53.590;9.922;2023-05-20T06:40:12;18.40;45.60
44729;DHT22;30457;53.590;9.922;2023-05-20T06:44:38;18.50;45.40
44729;DHT22;30457;53.590;9.922;2023-05-20T06:49:13;18.60;45.10
44729;DHT22;30457;53.590;9.922;2023-05-20T06:53:39;18.80;45.10
44729;DHT22;30457;53.590;9.922;2023-05-20T06:58:05;19.00;44.90
44729;DHT22;30457;53.590;9.922;2023-05-20T07:02:34;19.10;44.60
44729;DHT22;30457;53.590;9.922;2023-05-20T07:07:02;19.30;44.50
44729;DHT22;30457;53.590;9.922;2023-05-20T07:11:34;19.50;44.40
44729;DHT22;30457;53.590;9.922;2023-05-20T07:15:59;19.80;44.20
44729;DHT22;30457;53.590;9.922;2023-05-20T07:20:26;20.00;44.40
44729;DHT22;30457;53.590;9.922;2023-05-20T07:24:51;20.20;44.00
44729;DHT22;30457;53.590;9.922;2023-05-20T07:29:17;20.40;43.20
44729;DHT22;30457;53.590;9.922;2023-05-20T07:33:43;20.50;42.90
44729;DHT22;30457;53.590;9.922;2023-05-20T07:38:10;20.60;42.70
44729;DHT22;30457;53.590;9.922;2023-05-20T07:42:37;20.80;42.50
44729;DHT22;30457;53.590;9.922;2023-05-20T07:47:02;21.00;42.50
44729;DHT22;30457;53.590;9.922;2023-05-20T07:51:28;21.10;42.10
44729;DHT22;30457;53.590;9.922;2023-05-20T07:55:54;21.30;42.00
44729;DHT22;30457;53.590;9.922;2023-05-20T08:00:21;21.50;41.70
44729;DHT22;30457;53.590;9.922;2023-05-20T08:04:46;21.60;41.30
44729;DHT22;30457;53.590;9.922;2023-05-20T08:09:12;21.80;41.30
44729;DHT22;30457;53.590;9.922;2023-05-20T08:13:44;21.90;40.50
44729;DHT22;30457;53.590;9.922;2023-05-20T08:18:10;22.10;40.70
44729;DHT22;30457;53.590;9.922;2023-05-20T08:22:36;22.20;40.40
44729;DHT22;30457;53.590;9.922;2023-05-20T08:27:02;22.40;39.80
44729;DHT22;30457;53.590;9.922;2023-05-20T08:31:27;22.40;39.20
44729;DHT22;30457;53.590;9.922;2023-05-20T08:35:53;22.40;38.70
44729;DHT22;30457;53.590;9.922;2023-05-20T08:40:21;22.50;39.10
44729;DHT22;30457;53.590;9.922;2023-05-20T08:44:47;22.50;38.40
44729;DHT22;30457;53.590;9.922;2023-05-20T08:49:13;22.50;37.50
44729;DHT22;30457;53.590;9.922;2023-05-20T08:53:39;22.60;37.80
44729;DHT22;30457;53.590;9.922;2023-05-20T08:58:04;22.60;37.30
44729;DHT22;30457;53.590;9.922;2023-05-20T09:02:31;22.60;36.80
44729;DHT22;30457;53.590;9.922;2023-05-20T09:06:56;22.60;36.50
44729;DHT22;30457;53.590;9.922;2023-05-20T09:11:22;22.50;36.50
44729;DHT22;30457;53.590;9.922;2023-05-20T09:15:48;22.50;36.80
44729;DHT22;30457;53.590;9.922;2023-05-20T09:20:13;22.60;36.40
44729;DHT22;30457;53.590;9.922;2023-05-20T09:24:40;22.60;36.60
44729;DHT22;30457;53.590;9.922;2023-05-20T09:29:06;22.60;36.40
44729;DHT22;30457;53.590;9.922;2023-05-20T09:33:32;22.70;36.60
44729;DHT22;30457;53.590;9.922;2023-05-20T09:38:00;22.70;35.80
44729;DHT22;30457;53.590;9.922;2023-05-20T09:42:30;22.70;35.80
44729;DHT22;30457;53.590;9.922;2023-05-20T09:46:58;22.70;35.70
44729;DHT22;30457;53.590;9.922;2023-05-20T09:51:26;22.70;35.80
44729;DHT22;30457;53.590;9.922;2023-05-20T09:55:52;22.70;35.60
44729;DHT22;30457;53.590;9.922;2023-05-20T10:00:19;22.70;35.60
44729;DHT22;30457;53.590;9.922;2023-05-20T10:04:48;22.80;35.40
44729;DHT22;30457;53.590;9.922;2023-05-20T10:09:44;22.80;35.20
44729;DHT22;30457;53.590;9.922;2023-05-20T10:14:38;22.80;34.70
44729;DHT22;30457;53.590;9.922;2023-05-20T10:23:52;22.60;35.00
44729;DHT22;30457;53.590;9.922;2023-05-20T10:28:32;22.50;34.90
44729;DHT22;30457;53.590;9.922;2023-05-20T10:33:04;22.50;35.00
44729;DHT22;30457;53.590;9.922;2023-05-20T10:37:33;22.40;35.60
44729;DHT22;30457;53.590;9.922;2023-05-20T10:42:09;22.40;35.80
44729;DHT22;30457;53.590;9.922;2023-05-20T10:46:38;22.40;36.00
44729;DHT22;30457;53.590;9.922;2023-05-20T10:51:03;22.50;35.90
44729;DHT22;30457;53.590;9.922;2023-05-20T10:55:37;22.50;35.70
44729;DHT22;30457;53.590;9.922;2023-05-20T11:00:03;22.60;35.50
44729;DHT22;30457;53.590;9.922;2023-05-20T11:04:30;22.60;35.70
44729;DHT22;30457;53.590;9.922;2023-05-20T11:09:03;22.60;36.00
44729;DHT22;30457;53.590;9.922;2023-05-20T11:13:30;22.60;36.00
44729;DHT22;30457;53.590;9.922;2023-05-20T11:18:02;22.60;35.60
44729;DHT22;30457;53.590;9.922;2023-05-20T11:22:28;22.60;35.30
44729;DHT22;30457;53.590;9.922;2023-05-20T11:26:55;22.60;35.90
44729;DHT22;30457;53.590;9.922;2023-05-20T11:31:21;22.70;35.80
44729;DHT22;30457;53.590;9.922;2023-05-20T11:35:50;22.70;35.50
44729;DHT22;30457;53.590;9.922;2023-05-20T11:40:23;22.70;35.10
44729;DHT22;30457;53.590;9.922;2023-05-20T11:44:48;22.70;35.00
44729;DHT22;30457;53.590;9.922;2023-05-20T11:49:15;22.60;35.20
44729;DHT22;30457;53.590;9.922;2023-05-20T11:53:40;22.60;35.70
44729;DHT22;30457;53.590;9.922;2023-05-20T11:58:06;22.60;35.30
44729;DHT22;30457;53.590;9.922;2023-05-20T12:02:32;22.60;35.10
44729;DHT22;30457;53.590;9.922;2023-05-20T12:06:58;22.50;35.30
44729;DHT22;30457;53.590;9.922;2023-05-20T12:11:23;22.50;35.50
44729;DHT22;30457;53.590;9.922;2023-05-20T12:15:49;22.40;35.10
44729;DHT22;30457;53.590;9.922;2023-05-20T12:20:16;22.30;35.30
44729;DHT22;30457;53.590;9.922;2023-05-20T12:24:42;22.30;35.60
44729;DHT22;30457;53.590;9.922;2023-05-20T12:29:07;22.30;36.20
44729;DHT22;30457;53.590;9.922;2023-05-20T12:33:33;22.20;36.30
44729;DHT22;30457;53.590;9.922;2023-05-20T12:37:58;22.20;36.70
44729;DHT22;30457;53.590;9.922;2023-05-20T12:42:24;22.20;37.10
44729;DHT22;30457;53.590;9.922;2023-05-20T12:46:50;22.20;37.30
44729;DHT22;30457;53.590;9.922;2023-05-20T12:51:16;22.20;37.70
44729;DHT22;30457;53.590;9.922;2023-05-20T12:55:41;22.20;37.80
44729;DHT22;30457;53.590;9.922;2023-05-20T13:00:08;22.20;38.00
44729;DHT22;30457;53.590;9.922;2023-05-20T13:04:34;22.20;38.20
44729;DHT22;30457;53.590;9.922;2023-05-20T13:09:00;22.20;38.20
44729;DHT22;30457;53.590;9.922;2023-05-20T13:13:26;22.20;38.40
44729;DHT22;30457;53.590;9.922;2023-05-20T13:17:51;22.20;38.40
44729;DHT22;30457;53.590;9.922;2023-05-20T13:22:17;22.30;38.10
44729;DHT22;30457;53.590;9.922;2023-05-20T13:26:42;22.30;37.90
44729;DHT22;30457;53.590;9.922;2023-05-20T13:31:08;22.30;37.90
44729;DHT22;30457;53.590;9.922;2023-05-20T13:35:34;22.30;37.90
44729;DHT22;30457;53.590;9.922;2023-05-20T13:39:59;22.30;37.70
44729;DHT22;30457;53.590;9.922;2023-05-20T13:44:25;22.30;37.60
44729;DHT22;30457;53.590;9.922;2023-05-20T13:48:50;22.30;37.80
44729;DHT22;30457;53.590;9.922;2023-05-20T13:53:16;22.20;37.50
44729;DHT22;30457;53.590;9.922;2023-05-20T13:57:41;22.20;37.50
44729;DHT22;30457;53.590;9.922;2023-05-20T14:02:07;22.20;37.70
44729;DHT22;30457;53.590;9.922;2023-05-20T14:06:33;22.20;37.70
44729;DHT22;30457;53.590;9.922;2023-05-20T14:10:58;22.20;37.90
44729;DHT22;30457;53.590;9.922;2023-05-20T14:15:24;22.20;38.10
44729;DHT22;30457;53.590;9.922;2023-05-20T14:19:50;22.20;37.90
44729;DHT22;30457;53.590;9.922;2023-05-20T14:24:15;22.30;37.90
44729;DHT22;30457;53.590;9.922;2023-05-20T14:28:41;22.30;38.00
44729;DHT22;30457;53.590;9.922;2023-05-20T14:33:06;22.30;38.10
44729;DHT22;30457;53.590;9.922;2023-05-20T14:37:32;22.30;37.70
44729;DHT22;30457;53.590;9.922;2023-05-20T14:41:58;22.30;38.00
44729;DHT22;30457;53.590;9.922;2023-05-20T14:46:23;22.30;37.60
44729;DHT22;30457;53.590;9.922;2023-05-20T14:50:49;22.30;38.50
44729;DHT22;30457;53.590;9.922;2023-05-20T14:55:14;22.30;37.70
44729;DHT22;30457;53.590;9.922;2023-05-20T14:59:40;22.40;39.10
44729;DHT22;30457;53.590;9.922;2023-05-20T15:04:06;22.30;38.80
44729;DHT22;30457;53.590;9.922;2023-05-20T15:08:32;22.30;39.10
44729;DHT22;30457;53.590;9.922;2023-05-20T15:12:57;22.30;39.20
44729;DHT22;30457;53.590;9.922;2023-05-20T15:17:23;22.20;39.10
44729;DHT22;30457;53.590;9.922;2023-05-20T15:21:48;22.20;39.20
44729;DHT22;30457;53.590;9.922;2023-05-20T15:26:16;22.10;39.20
44729;DHT22;30457;53.590;9.922;2023-05-20T15:30:41;22.10;39.40
44729;DHT22;30457;53.590;9.922;2023-05-20T15:35:07;22.10;39.60
44729;DHT22;30457;53.590;9.922;2023-05-20T15:39:36;22.10;39.80
44729;DHT22;30457;53.590;9.922;2023-05-20T15:44:01;22.10;39.90
44729;DHT22;30457;53.590;9.922;2023-05-20T15:48:27;22.10;40.00
44729;DHT22;30457;53.590;9.922;2023-05-20T15:52:53;22.10;40.10
44729;DHT22;30457;53.590;9.922;2023-05-20T15:57:19;22.10;40.10
44729;DHT22;30457;53.590;9.922;2023-05-20T16:01:44;22.10;40.10
44729;DHT22;30457;53.590;9.922;2023-05-20T16:06:10;22.10;40.30
44729;DHT22;30457;53.590;9.922;2023-05-20T16:10:36;22.10;40.20
44729;DHT22;30457;53.590;9.922;2023-05-20T16:15:02;22.10;40.30
44729;DHT22;30457;53.590;9.922;2023-05-20T16:19:28;22.10;40.40
44729;DHT22;30457;53.590;9.922;2023-05-20T16:23:53;22.10;40.20
44729;DHT22;30457;53.590;9.922;2023-05-20T16:28:19;22.10;40.20
44729;DHT22;30457;53.590;9.922;2023-05-20T16:32:45;22.00;40.10
44729;DHT22;30457;53.590;9.922;2023-05-20T16:37:10;22.00;40.20
44729;DHT22;30457;53.590;9.922;2023-05-20T16:41:36;21.90;40.20
44729;DHT22;30457;53.590;9.922;2023-05-20T16:46:02;21.90;40.30
44729;DHT22;30457;53.590;9.922;2023-05-20T16:50:27;21.90;40.40
44729;DHT22;30457;53.590;9.922;2023-05-20T16:54:53;21.80;40.40
44729;DHT22;30457;53.590;9.922;2023-05-20T16:59:21;21.80;40.40
44729;DHT22;30457;53.590;9.922;2023-05-20T17:03:49;21.70;40.50
44729;DHT22;30457;53.590;9.922;2023-05-20T17:08:14;21.70;40.60
44729;DHT22;30457;53.590;9.922;2023-05-20T17:12:40;21.70;40.60
44729;DHT22;30457;53.590;9.922;2023-05-20T17:17:06;21.70;40.80
44729;DHT22;30457;53.590;9.922;2023-05-20T17:21:33;21.60;40.80
44729;DHT22;30457;53.590;9.922;2023-05-20T17:25:59;21.60;40.90
44729;DHT22;30457;53.590;9.922;2023-05-20T17:30:25;21.60;41.00
44729;DHT22;30457;53.590;9.922;2023-05-20T17:34:51;21.60;41.20
44729;DHT22;30457;53.590;9.922;2023-05-20T17:39:17;21.50;41.20
44729;DHT22;30457;53.590;9.922;2023-05-20T17:43:43;21.50;41.20
44729;DHT22;30457;53.590;9.922;2023-05-20T17:48:08;21.50;41.20
44729;DHT22;30457;53.590;9.922;2023-05-20T17:52:34;21.40;41.40
44729;DHT22;30457;53.590;9.922;2023-05-20T17:57:00;21.40;41.40
44729;DHT22;30457;53.590;9.922;2023-05-20T18:01:26;21.30;41.50
44729;DHT22;30457;53.590;9.922;2023-05-20T18:05:51;21.30;41.70
44729;DHT22;30457;53.590;9.922;2023-05-20T18:10:17;21.30;41.90
44729;DHT22;30457;53.590;9.922;2023-05-20T18:14:43;21.30;41.90
44729;DHT22;30457;53.590;9.922;2023-05-20T18:19:08;21.30;41.90
44729;DHT22;30457;53.590;9.922;2023-05-20T18:23:34;21.20;41.90
44729;DHT22;30457;53.590;9.922;2023-05-20T18:27:59;21.20;42.00
44729;DHT22;30457;53.590;9.922;2023-05-20T18:32:25;21.20;42.10
44729;DHT22;30457;53.590;9.922;2023-05-20T18:36:53;21.20;41.90
44729;DHT22;30457;53.590;9.922;2023-05-20T18:41:18;21.10;41.80
44729;DHT22;30457;53.590;9.922;2023-05-20T18:45:44;21.10;41.80
44729;DHT22;30457;53.590;9.922;2023-05-20T18:50:10;21.10;42.00
44729;DHT22;30457;53.590;9.922;2023-05-20T18:54:36;21.00;42.00
44729;DHT22;30457;53.590;9.922;2023-05-20T18:59:01;20.90;42.00
44729;DHT22;30457;53.590;9.922;2023-05-20T19:03:27;20.90;42.10
44729;DHT22;30457;53.590;9.922;2023-05-20T19:07:53;20.80;42.10
44729;DHT22;30457;53.590;9.922;2023-05-20T19:12:19;20.70;42.10
44729;DHT22;30457;53.590;9.922;2023-05-20T19:16:44;20.70;42.20
44729;DHT22;30457;53.590;9.922;2023-05-20T19:21:10;20.60;42.10
44729;DHT22;30457;53.590;9.922;2023-05-20T19:25:36;20.60;42.10
44729;DHT22;30457;53.590;9.922;2023-05-20T19:30:01;20.50;42.10
44729;DHT22;30457;53.590;9.922;2023-05-20T19:34:27;20.40;42.10
44729;DHT22;30457;53.590;9.922;2023-05-20T19:38:52;20.30;42.00
44729;DHT22;30457;53.590;9.922;2023-05-20T19:43:18;20.10;42.00
44729;DHT22;30457;53.590;9.922;2023-05-20T19:47:44;20.10;42.20
44729;DHT22;30457;53.590;9.922;2023-05-20T19:52:09;19.90;42.30
44729;DHT22;30457;53.590;9.922;2023-05-20T19:56:35;19.80;42.30
44729;DHT22;30457;53.590;9.922;2023-05-20T20:01:01;19.70;42.30
44729;DHT22;30457;53.590;9.922;2023-05-20T20:05:26;19.70;42.50
44729;DHT22;30457;53.590;9.922;2023-05-20T20:09:52;19.60;42.60
44729;DHT22;30457;53.590;9.922;2023-05-20T20:14:20;19.50;42.80
44729;DHT22;30457;53.590;9.922;2023-05-20T20:18:46;19.40;43.60
44729;DHT22;30457;53.590;9.922;2023-05-20T20:23:12;19.30;43.10
44729;DHT22;30457;53.590;9.922;2023-05-20T20:27:39;19.20;43.10
44729;DHT22;30457;53.590;9.922;2023-05-20T20:32:12;19.20;43.20
44729;DHT22;30457;53.590;9.922;2023-05-20T20:36:38;19.10;43.40
44729;DHT22;30457;53.590;9.922;2023-05-20T20:41:04;19.10;43.40
44729;DHT22;30457;53.590;9.922;2023-05-20T20:45:29;19.00;43.60
44729;DHT22;30457;53.590;9.922;2023-05-20T20:49:55;19.00;43.70
44729;DHT22;30457;53.590;9.922;2023-05-20T20:54:20;18.90;43.70
44729;DHT22;30457;53.590;9.922;2023-05-20T20:58:46;18.90;43.80
44729;DHT22;30457;53.590;9.922;2023-05-20T21:03:12;18.80;43.90
44729;DHT22;30457;53.590;9.922;2023-05-20T21:07:37;18.80;43.90
44729;DHT22;30457;53.590;9.922;2023-05-20T21:12:08;18.70;44.00
44729;DHT22;30457;53.590;9.922;2023-05-20T21:16:34;18.60;44.20
44729;DHT22;30457;53.590;9.922;2023-05-20T21:21:00;18.60;44.40
44729;DHT22;30457;53.590;9.922;2023-05-20T21:25:25;18.50;44.50
44729;DHT22;30457;53.590;9.922;2023-05-20T21:29:51;18.50;44.60
44729;DHT22;30457;53.590;9.922;2023-05-20T21:34:17;18.50;44.80
44729;DHT22;30457;53.590;9.922;2023-05-20T21:38:42;18.40;45.50
44729;DHT22;30457;53.590;9.922;2023-05-20T21:43:08;18.40;45.00
44729;DHT22;30457;53.590;9.922;2023-05-20T21:47:34;18.40;45.10
44729;DHT22;30457;53.590;9.922;2023-05-20T21:51:59;18.40;45.20
44729;DHT22;30457;53.590;9.922;2023-05-20T21:56:25;18.40;45.30
44729;DHT22;30457;53.590;9.922;2023-05-20T22:00:51;18.40;45.10
44729;DHT22;30457;53.590;9.922;2023-05-20T22:05:16;18.30;45.20
44729;DHT22;30457;53.590;9.922;2023-05-20T22:09:42;18.30;45.20
44729;DHT22;30457;53.590;9.922;2023-05-20T22:14:07;18.30;45.40
44729;DHT22;30457;53.590;9.922;2023-05-20T22:18:33;18.20;45.50
44729;DHT22;30457;53.590;9.922;2023-05-20T22:22:59;18.20;45.50
44729;DHT22;30457;53.590;9.922;2023-05-20T22:27:25;18.20;45.70
44729;DHT22;30457;53.590;9.922;2023-05-20T22:31:51;18.20;45.70
44729;DHT22;30457;53.590;9.922;2023-05-20T22:36:17;18.10;45.60
44729;DHT22;30457;53.590;9.922;2023-05-20T22:40:42;18.10;45.80
44729;DHT22;30457;53.590;9.922;2023-05-20T22:45:09;18.00;46.00
44729;DHT22;30457;53.590;9.922;2023-05-20T22:49:34;18.00;46.00
44729;DHT22;30457;53.590;9.922;2023-05-20T22:54:03;17.90;46.60
44729;DHT22;30457;53.590;9.922;2023-05-20T22:58:28;17.90;46.00
44729;DHT22;30457;53.590;9.922;2023-05-20T23:02:54;17.90;46.10
44729;DHT22;30457;53.590;9.922;2023-05-20T23:07:20;17.80;46.10
44729;DHT22;30457;53.590;9.922;2023-05-20T23:11:46;17.80;46.20
44729;DHT22;30457;53.590;9.922;2023-05-20T23:16:12;17.80;46.30
44729;DHT22;30457;53.590;9.922;2023-05-20T23:20:37;17.70;46.20
44729;DHT22;30457;53.590;9.922;2023-05-20T23:25:05;17.70;46.30
44729;DHT22;30457;53.590;9.922;2023-05-20T23:29:30;17.70;46.40
44729;DHT22;30457;53.590;9.922;2023-05-20T23:33:56;17.60;46.40
44729;DHT22;30457;53.590;9.922;2023-05-20T23:38:22;17.60;46.40
44729;DHT22;30457;53.590;9.922;2023-05-20T23:42:47;17.60;46.60
44729;DHT22;30457;53.590;9.922;2023-05-20T23:47:13;17.50;46.50
44729;DHT22;30457;53.590;9.922;2023-05-20T23:51:38;17.50;46.60
44729;DHT22;30457;53.590;9.922;2023-05-20T23:56:04;17.50;46.60
